createdAt,value
2022-09-30T00:00:40.652Z,4.82
2022-09-30T00:05:43.700Z,5.57
2022-09-30T00:10:46.732Z,5.15
2022-09-30T00:15:51.207Z,5.45
2022-09-30T00:20:54.631Z,5.70
2022-09-30T00:25:59.875Z,5.18
2022-09-30T00:31:07.403Z,5.90
2022-09-30T00:36:11.313Z,5.05
2022-09-30T00:41:14.487Z,5.30
2022-09-30T00:46:23.826Z,5.25
2022-09-30T00:51:31.091Z,5.85
2022-09-30T00:56:39.443Z,5.80
2022-09-30T01:01:44.505Z,5.70
2022-09-30T01:06:48.230Z,5.38
2022-09-30T01:11:51.307Z,4.95
2022-09-30T01:17:03.255Z,5.85
2022-09-30T01:22:16.887Z,6.65
2022-09-30T01:27:41.776Z,6.25
2022-09-30T01:33:08.667Z,5.65
2022-09-30T01:38:17.600Z,5.75
2022-09-30T01:43:29.780Z,6.80
2022-09-30T01:48:42.548Z,6.32
2022-09-30T01:53:50.053Z,5.90
2022-09-30T01:58:57.273Z,6.63
2022-09-30T02:04:07.226Z,6.60
2022-09-30T02:09:14.924Z,7.05
2022-09-30T02:14:23.424Z,7.57
2022-09-30T02:19:33.581Z,5.75
2022-09-30T02:24:37.788Z,8.00
2022-09-30T02:29:45.781Z,6.57
2022-09-30T02:34:53.629Z,7.72
2022-09-30T02:40:02.464Z,6.60
2022-09-30T02:45:10.314Z,7.07
2022-09-30T02:50:20.382Z,6.38
2022-09-30T02:55:31.695Z,8.20
2022-09-30T03:00:35.047Z,7.30
2022-09-30T03:05:39.956Z,7.57
2022-09-30T03:10:44.031Z,6.25
2022-09-30T03:15:59.712Z,7.95
2022-09-30T03:21:17.597Z,7.30
2022-09-30T03:26:35.058Z,8.35
2022-09-30T03:31:48.148Z,7.68
2022-09-30T03:37:04.321Z,7.45
2022-09-30T03:42:17.266Z,7.10
2022-09-30T03:52:32.199Z,8.63
2022-09-30T03:57:35.326Z,7.22
2022-09-30T04:02:38.437Z,8.50
2022-09-30T04:07:42.891Z,8.50
2022-09-30T04:12:46.187Z,8.47
2022-09-30T04:17:49.638Z,6.28
2022-09-30T04:22:57.475Z,8.02
2022-09-30T04:28:00.960Z,8.45
2022-09-30T04:33:03.970Z,7.18
2022-09-30T04:38:08.406Z,7.93
2022-09-30T04:43:11.453Z,6.40
2022-09-30T04:48:14.894Z,7.32
2022-09-30T04:53:19.451Z,7.30
2022-09-30T04:58:24.582Z,7.30
2022-09-30T05:03:27.712Z,7.05
2022-09-30T05:08:33.844Z,7.32
2022-09-30T05:13:39.897Z,8.07
2022-09-30T05:18:46.230Z,8.00
2022-09-30T05:23:51.100Z,9.32
2022-09-30T05:28:54.354Z,8.18
2022-09-30T05:33:58.336Z,8.98
2022-09-30T05:39:02.962Z,8.48
2022-09-30T05:44:07.216Z,8.90
2022-09-30T05:49:10.544Z,7.72
2022-09-30T05:54:15.137Z,8.15
2022-09-30T05:59:18.985Z,7.67
2022-09-30T06:04:22.726Z,8.88
2022-09-30T06:09:27.206Z,9.43
2022-09-30T06:14:30.434Z,10.57
2022-09-30T06:19:33.513Z,9.38
2022-09-30T06:24:37.875Z,10.85
2022-09-30T06:29:40.957Z,11.35
2022-09-30T06:34:44.916Z,10.40
2022-09-30T06:39:50.747Z,9.98
2022-09-30T06:44:54.368Z,9.70
2022-09-30T06:49:59.148Z,10.02
2022-09-30T06:55:03.943Z,11.53
2022-09-30T07:00:08.374Z,10.17
2022-09-30T07:05:11.418Z,10.60
2022-09-30T07:10:16.291Z,8.65
2022-09-30T07:15:23.248Z,7.07
2022-09-30T07:20:26.334Z,7.10
2022-09-30T07:25:30.695Z,6.93
2022-09-30T07:30:33.742Z,5.93
2022-09-30T07:35:38.118Z,5.43
2022-09-30T07:40:42.678Z,5.80
2022-09-30T07:45:46.117Z,5.82
2022-09-30T07:50:53.491Z,5.55
2022-09-30T07:56:02.225Z,6.22
2022-09-30T08:01:09.407Z,5.65
2022-09-30T08:06:15.053Z,5.95
2022-09-30T08:11:20.082Z,5.35
2022-09-30T08:16:25.277Z,6.10
2022-09-30T08:21:29.437Z,5.53
2022-09-30T08:26:33.930Z,5.90
2022-09-30T08:31:37.481Z,5.32
2022-09-30T08:36:40.705Z,5.57
2022-09-30T08:42:19.179Z,5.40
2022-09-30T08:47:43.021Z,5.80
2022-09-30T08:52:49.907Z,5.45
2022-09-30T08:57:56.426Z,5.63
2022-09-30T09:03:03.257Z,5.28
2022-09-30T09:08:15.747Z,5.95
2022-09-30T09:13:38.563Z,4.60
2022-09-30T09:18:56.474Z,5.13
2022-09-30T09:24:03.040Z,5.45
2022-09-30T09:29:20.553Z,5.50
2022-09-30T09:34:25.584Z,5.85
2022-09-30T09:44:48.308Z,5.25
2022-09-30T09:49:57.713Z,4.97
2022-09-30T09:55:01.187Z,5.53
2022-09-30T10:00:27.178Z,5.50
2022-09-30T10:05:39.781Z,4.72
2022-09-30T10:11:58.819Z,4.20
2022-09-30T10:17:05.171Z,3.92
2022-09-30T10:22:19.569Z,3.72
2022-09-30T10:27:31.131Z,3.90
2022-09-30T10:32:36.834Z,3.20
2022-09-30T10:37:51.639Z,2.72
2022-09-30T10:42:55.411Z,2.70
2022-09-30T10:54:52.156Z,1.60
2022-09-30T11:00:00.726Z,1.98
2022-09-30T11:05:13.434Z,1.85
2022-09-30T11:10:32.967Z,2.00
2022-09-30T11:15:44.834Z,1.60
2022-09-30T11:20:54.414Z,2.00
2022-09-30T11:26:05.353Z,1.17
2022-09-30T11:31:16.092Z,2.15
2022-09-30T11:36:31.414Z,1.60
2022-09-30T11:41:39.511Z,1.63
2022-09-30T11:47:01.533Z,1.65
2022-09-30T11:52:14.088Z,1.65
2022-09-30T11:57:27.057Z,1.83
2022-09-30T12:02:37.753Z,1.80
2022-09-30T12:07:46.333Z,1.50
2022-09-30T12:12:56.167Z,1.55
2022-09-30T12:18:01.880Z,1.48
2022-09-30T12:23:16.852Z,1.42
2022-09-30T12:33:59.882Z,1.33
2022-09-30T12:39:51.448Z,1.77
2022-09-30T12:45:24.848Z,1.35
2022-09-30T12:50:34.975Z,1.40
2022-09-30T12:55:40.944Z,1.02
2022-09-30T13:01:03.265Z,1.08
2022-09-30T13:06:06.893Z,1.20
2022-09-30T13:11:39.480Z,1.48
2022-09-30T13:17:01.346Z,1.35
2022-09-30T13:22:52.646Z,1.10
2022-09-30T13:28:28.716Z,1.30
2022-09-30T13:33:44.752Z,1.15
2022-09-30T13:39:06.999Z,0.98
2022-09-30T13:44:16.673Z,1.20
2022-09-30T13:49:24.912Z,1.70
2022-09-30T13:54:34.078Z,1.40
2022-09-30T13:59:49.267Z,1.30
2022-09-30T14:05:15.205Z,1.40
2022-09-30T14:10:40.944Z,1.40
2022-09-30T14:16:12.231Z,1.10
2022-09-30T14:21:30.753Z,1.30
2022-09-30T14:26:45.936Z,1.50
2022-09-30T14:31:49.239Z,1.23
2022-09-30T14:36:54.816Z,1.25
2022-09-30T14:57:16.045Z,2.03
2022-09-30T15:09:53.566Z,1.15
2022-09-30T16:07:05.960Z,1.50
2022-09-30T16:12:18.254Z,1.35
2022-09-30T16:17:24.835Z,1.30
2022-09-30T16:22:51.672Z,1.52
2022-09-30T16:27:58.755Z,1.60
2022-09-30T16:33:05.236Z,1.75
2022-09-30T16:38:12.557Z,1.60
2022-09-30T16:43:17.157Z,2.30
2022-09-30T16:48:21.628Z,2.00
2022-09-30T16:53:26.156Z,2.77
2022-09-30T16:58:29.750Z,2.60
2022-09-30T17:03:32.949Z,2.05
2022-09-30T17:08:37.416Z,2.30
2022-09-30T17:13:41.376Z,2.07
2022-09-30T17:18:45.118Z,2.40
2022-09-30T17:23:50.040Z,2.63
2022-09-30T17:28:53.672Z,2.28
2022-09-30T17:34:00.789Z,2.50
2022-09-30T17:39:07.591Z,2.92
2022-09-30T17:44:11.049Z,2.67
2022-09-30T17:49:20.698Z,2.72
2022-09-30T17:54:29.502Z,3.30
2022-09-30T18:04:37.887Z,3.65
2022-09-30T18:14:46.490Z,3.67
2022-09-30T18:19:50.157Z,3.10
2022-09-30T18:25:13.676Z,3.92
2022-09-30T18:30:18.238Z,3.78
2022-09-30T18:35:24.560Z,4.70
2022-09-30T18:40:30.452Z,4.43
2022-09-30T18:45:38.440Z,4.22
2022-09-30T18:50:42.052Z,4.88
2022-09-30T18:55:47.386Z,5.57
2022-09-30T19:00:50.554Z,5.85
2022-09-30T19:05:54.124Z,7.53
2022-09-30T19:10:58.617Z,6.38
2022-09-30T19:16:04.360Z,6.65
2022-09-30T19:21:12.980Z,6.55
2022-09-30T19:26:17.460Z,6.53
2022-09-30T19:31:21.247Z,6.47
2022-09-30T19:36:27.139Z,6.63
2022-09-30T19:41:32.292Z,6.40
2022-09-30T19:46:36.039Z,5.72
2022-09-30T19:51:39.758Z,6.32
2022-09-30T19:56:44.781Z,5.78
2022-09-30T20:01:48.371Z,5.20
2022-09-30T20:06:53.741Z,4.72
2022-09-30T20:11:58.170Z,5.93
2022-09-30T20:17:01.229Z,6.80
2022-09-30T20:22:05.362Z,5.50
2022-09-30T20:27:10.566Z,5.03
2022-09-30T20:32:14.109Z,5.85
2022-09-30T20:37:17.205Z,5.03
2022-09-30T20:42:21.578Z,5.22
2022-09-30T20:47:24.943Z,5.07
2022-09-30T20:52:29.369Z,5.07
2022-09-30T20:57:33.814Z,5.45
2022-09-30T21:02:36.921Z,6.20
2022-09-30T21:07:40.019Z,5.45
2022-09-30T21:12:45.157Z,5.13
2022-09-30T21:17:48.331Z,5.63
2022-09-30T21:22:53.866Z,5.72
2022-09-30T21:27:58.703Z,5.15
2022-09-30T21:33:01.782Z,4.87
2022-09-30T21:38:04.914Z,4.78
2022-09-30T21:43:09.923Z,5.07
2022-09-30T21:48:13.345Z,5.90
2022-09-30T21:53:16.674Z,6.07
2022-09-30T21:58:21.216Z,5.57
2022-09-30T22:03:24.775Z,5.90
2022-09-30T22:08:33.031Z,5.60
2022-09-30T22:28:40.579Z,5.05
2022-09-30T22:34:03.239Z,5.82
2022-09-30T22:39:06.459Z,5.32
2022-09-30T22:44:11.187Z,5.50
2022-09-30T22:49:14.481Z,6.83
2022-09-30T22:54:17.808Z,6.35
2022-09-30T22:59:23.481Z,6.60
2022-09-30T23:09:31.143Z,5.97
2022-09-30T23:14:35.867Z,6.50
2022-09-30T23:19:38.906Z,6.55
2022-09-30T23:24:42.109Z,6.05
2022-09-30T23:29:47.205Z,7.03
2022-09-30T23:34:50.203Z,6.37
2022-09-30T23:39:53.317Z,6.22
2022-09-30T23:44:58.133Z,5.78
2022-09-30T23:50:01.189Z,6.40
2022-09-30T23:55:05.145Z,7.93
